createdAt,value
2022-10-25T00:02:25.760Z,0.98
2022-10-25T00:04:53.464Z,0.90
2022-10-25T00:07:21.112Z,1.25
2022-10-25T00:09:50.071Z,1.10
2022-10-25T00:12:17.906Z,1.02
2022-10-25T00:14:45.615Z,1.35
2022-10-25T00:17:32.934Z,0.90
2022-10-25T00:20:00.583Z,1.25
2022-10-25T00:22:29.332Z,1.10
2022-10-25T00:24:57.031Z,1.23
2022-10-25T00:27:24.699Z,1.13
2022-10-25T00:29:53.042Z,1.20
2022-10-25T00:32:20.712Z,1.00
2022-10-25T00:34:49.738Z,1.05
2022-10-25T00:37:17.521Z,1.33
2022-10-25T00:39:46.327Z,1.10
2022-10-25T00:42:15.427Z,1.60
2022-10-25T00:44:49.939Z,1.27
2022-10-25T00:47:23.188Z,0.90
2022-10-25T00:49:55.429Z,1.38
2022-10-25T00:52:23.509Z,1.38
2022-10-25T00:54:53.013Z,1.35
2022-10-25T00:57:21.575Z,1.20
2022-10-25T00:59:50.060Z,1.48
2022-10-25T01:02:18.755Z,1.38
2022-10-25T01:04:46.697Z,1.83
2022-10-25T01:07:15.872Z,1.38
2022-10-25T01:09:43.985Z,1.63
2022-10-25T01:12:11.662Z,1.40
2022-10-25T01:14:40.108Z,1.40
2022-10-25T01:17:11.940Z,1.88
2022-10-25T01:19:47.749Z,1.58
2022-10-25T01:22:19.636Z,1.38
2022-10-25T01:24:59.054Z,1.38
2022-10-25T01:27:31.691Z,1.40
2022-10-25T01:30:05.617Z,1.80
2022-10-25T01:32:39.424Z,1.27
2022-10-25T01:35:10.330Z,1.45
2022-10-25T01:37:42.175Z,1.30
2022-10-25T01:40:17.704Z,1.27
2022-10-25T01:42:50.103Z,1.30
2022-10-25T01:45:20.768Z,1.30
2022-10-25T01:48:10.745Z,1.30
2022-10-25T01:50:41.044Z,1.10
2022-10-25T01:53:08.743Z,1.23
2022-10-25T01:55:39.072Z,1.30
2022-10-25T01:58:12.066Z,1.30
2022-10-25T02:00:43.915Z,1.30
2022-10-25T02:03:15.636Z,1.23
2022-10-25T02:05:49.762Z,1.35
2022-10-25T02:08:24.287Z,1.15
2022-10-25T02:10:54.609Z,1.10
2022-10-25T02:13:27.385Z,0.98
2022-10-25T02:15:57.193Z,1.35
2022-10-25T02:18:28.434Z,1.20
2022-10-25T02:20:56.784Z,1.45
2022-10-25T02:23:24.865Z,1.10
2022-10-25T02:25:52.538Z,1.40
2022-10-25T02:28:22.244Z,1.23
2022-10-25T02:30:50.976Z,1.27
2022-10-25T02:33:18.652Z,1.10
2022-10-25T02:36:05.207Z,1.25
2022-10-25T02:38:33.106Z,1.30
2022-10-25T02:41:01.136Z,1.25
2022-10-25T02:45:56.390Z,1.33
2022-10-25T02:48:24.067Z,1.40
2022-10-25T02:50:53.128Z,1.13
2022-10-25T02:53:20.772Z,1.15
2022-10-25T02:55:48.424Z,1.40
2022-10-25T02:58:16.029Z,1.40
2022-10-25T03:00:43.687Z,1.38
2022-10-25T03:03:11.348Z,1.10
2022-10-25T03:05:39.107Z,1.20
2022-10-25T03:08:08.016Z,1.10
2022-10-25T03:10:37.715Z,1.20
2022-10-25T03:13:05.374Z,0.93
2022-10-25T03:15:33.027Z,1.20
2022-10-25T03:18:00.695Z,1.20
2022-10-25T03:20:28.384Z,0.98
2022-10-25T03:22:56.003Z,1.15
2022-10-25T03:25:24.895Z,1.13
2022-10-25T03:27:52.551Z,1.10
2022-10-25T03:30:20.274Z,1.10
2022-10-25T03:32:47.962Z,1.02
2022-10-25T03:35:34.373Z,1.10
2022-10-25T03:38:02.252Z,1.15
2022-10-25T03:40:31.217Z,1.20
2022-10-25T03:42:58.919Z,1.00
2022-10-25T03:45:26.779Z,1.10
2022-10-25T03:47:54.413Z,1.08
2022-10-25T03:50:22.039Z,1.10
2022-10-25T03:52:49.737Z,1.10
2022-10-25T03:55:17.639Z,0.98
2022-10-25T03:57:46.902Z,1.25
2022-10-25T04:00:15.454Z,1.08
2022-10-25T04:02:43.147Z,1.05
2022-10-25T04:05:10.820Z,1.20
2022-10-25T04:07:38.412Z,0.98
2022-10-25T04:10:06.406Z,1.30
2022-10-25T04:12:34.000Z,1.10
2022-10-25T04:15:02.954Z,1.30
2022-10-25T04:17:30.869Z,1.10
2022-10-25T04:19:58.492Z,1.10
2022-10-25T04:22:26.212Z,1.08
2022-10-25T04:24:53.862Z,1.17
2022-10-25T04:27:21.614Z,1.08
2022-10-25T04:29:49.306Z,0.90
2022-10-25T04:34:47.012Z,0.70
2022-10-25T04:37:14.662Z,1.08
2022-10-25T04:39:43.118Z,1.10
2022-10-25T04:42:10.833Z,0.98
2022-10-25T04:44:38.464Z,1.02
2022-10-25T04:47:06.197Z,1.20
2022-10-25T04:49:52.788Z,1.30
2022-10-25T04:52:20.452Z,0.95
2022-10-25T04:54:48.304Z,1.20
2022-10-25T04:57:15.953Z,0.93
2022-10-25T04:59:43.577Z,0.80
2022-10-25T05:02:12.372Z,1.25
2022-10-25T05:04:41.399Z,1.08
2022-10-25T05:07:09.110Z,1.23
2022-10-25T05:09:36.757Z,0.90
2022-10-25T05:12:04.511Z,0.88
2022-10-25T05:14:32.119Z,0.90
2022-10-25T05:16:59.917Z,1.10
2022-10-25T05:19:27.637Z,0.88
2022-10-25T05:21:56.598Z,1.08
2022-10-25T05:24:24.297Z,1.00
2022-10-25T05:26:52.167Z,1.20
2022-10-25T05:29:19.806Z,1.00
2022-10-25T05:31:47.428Z,0.80
2022-10-25T05:34:15.154Z,1.10
2022-10-25T05:36:42.829Z,1.20
2022-10-25T05:39:11.774Z,0.80
2022-10-25T05:41:39.487Z,1.05
2022-10-25T05:44:07.324Z,0.80
2022-10-25T05:46:35.367Z,1.08
2022-10-25T05:49:03.255Z,1.00
2022-10-25T05:51:36.649Z,0.85
2022-10-25T05:54:05.901Z,1.00
2022-10-25T05:56:35.635Z,1.08
2022-10-25T05:59:03.538Z,0.93
2022-10-25T06:01:31.285Z,0.93
2022-10-25T06:03:59.023Z,1.10
2022-10-25T06:06:26.769Z,1.10
2022-10-25T06:08:56.821Z,1.00
2022-10-25T06:11:24.949Z,1.00
2022-10-25T06:13:54.179Z,1.13
2022-10-25T06:16:22.380Z,1.20
2022-10-25T06:18:50.114Z,1.30
2022-10-25T06:21:18.961Z,1.27
2022-10-25T06:23:47.259Z,1.00
2022-10-25T06:26:15.860Z,1.05
2022-10-25T06:28:43.815Z,0.80
2022-10-25T06:31:13.655Z,1.38
2022-10-25T06:33:42.027Z,1.45
2022-10-25T06:36:13.020Z,1.48
2022-10-25T06:38:41.066Z,1.60
2022-10-25T06:41:10.669Z,1.05
2022-10-25T06:43:38.866Z,1.38
2022-10-25T06:46:06.839Z,1.20
2022-10-25T06:48:36.284Z,1.60
2022-10-25T06:51:04.946Z,1.70
2022-10-25T06:53:32.924Z,1.75
2022-10-25T06:56:04.591Z,1.63
2022-10-25T06:58:33.804Z,1.63
2022-10-25T07:01:02.799Z,1.80
2022-10-25T07:03:35.179Z,1.67
2022-10-25T07:06:06.110Z,2.00
2022-10-25T07:08:34.852Z,1.70
2022-10-25T07:11:02.960Z,2.15
2022-10-25T07:13:31.235Z,1.83
2022-10-25T07:16:02.071Z,2.13
2022-10-25T07:18:30.225Z,1.50
2022-10-25T07:20:59.592Z,2.20
2022-10-25T07:23:28.812Z,2.08
2022-10-25T07:25:56.682Z,1.75
2022-10-25T07:28:24.339Z,2.08
2022-10-25T07:30:52.325Z,2.00
2022-10-25T07:33:20.969Z,1.30
2022-10-25T07:36:06.147Z,1.35
2022-10-25T07:38:38.633Z,1.40
2022-10-25T07:41:06.644Z,1.65
2022-10-25T07:43:34.340Z,1.00
2022-10-25T07:46:02.031Z,1.87
2022-10-25T07:48:29.691Z,2.30
2022-10-25T07:50:57.378Z,3.55
2022-10-25T07:53:25.016Z,3.97
2022-10-25T07:55:55.477Z,4.35
2022-10-25T07:58:23.375Z,2.65
2022-10-25T08:00:51.021Z,2.40
2022-10-25T08:03:19.372Z,2.20
2022-10-25T08:05:47.949Z,1.63
2022-10-25T08:08:16.246Z,0.95
2022-10-25T08:10:45.014Z,1.20
2022-10-25T08:13:14.014Z,0.85
2022-10-25T08:15:41.742Z,1.10
2022-10-25T08:18:09.884Z,0.80
2022-10-25T08:21:00.762Z,1.20
2022-10-25T08:23:26.158Z,0.77
2022-10-25T08:25:53.997Z,0.65
2022-10-25T08:28:22.967Z,1.20
2022-10-25T08:30:50.663Z,0.90
2022-10-25T08:33:18.299Z,0.52
2022-10-25T08:35:46.028Z,0.60
2022-10-25T08:38:13.653Z,0.70
2022-10-25T08:40:45.721Z,0.85
2022-10-25T08:43:19.726Z,0.77
2022-10-25T08:45:53.894Z,0.60
2022-10-25T08:48:23.975Z,0.90
2022-10-25T08:50:53.587Z,0.63
2022-10-25T08:53:23.779Z,0.60
2022-10-25T08:56:11.723Z,0.68
2022-10-25T08:58:45.408Z,0.70
2022-10-25T09:01:16.075Z,0.70
2022-10-25T09:03:44.568Z,0.80
2022-10-25T09:06:17.348Z,0.70
2022-10-25T09:08:51.389Z,0.60
2022-10-25T09:11:23.715Z,0.55
2022-10-25T09:13:53.652Z,0.80
2022-10-25T09:16:25.496Z,0.40
2022-10-25T09:18:54.912Z,0.90
2022-10-25T09:21:23.430Z,0.60
2022-10-25T09:23:57.252Z,0.60
2022-10-25T09:26:32.019Z,0.60
2022-10-25T09:29:02.647Z,0.50
2022-10-25T09:31:33.974Z,0.60
2022-10-25T09:34:04.540Z,0.35
2022-10-25T09:36:37.111Z,0.60
2022-10-25T09:39:11.227Z,0.50
2022-10-25T09:41:44.143Z,0.65
2022-10-25T09:44:13.539Z,0.50
2022-10-25T09:46:45.499Z,0.50
2022-10-25T09:49:18.382Z,0.77
2022-10-25T09:51:51.880Z,0.60
2022-10-25T09:54:22.909Z,0.70
2022-10-25T09:56:50.582Z,0.60
2022-10-25T09:59:18.230Z,0.77
2022-10-25T10:01:47.278Z,0.60
2022-10-25T10:04:24.557Z,0.70
2022-10-25T10:06:54.587Z,0.60
2022-10-25T10:09:22.850Z,0.65
2022-10-25T10:11:53.664Z,0.70
2022-10-25T10:14:23.646Z,0.73
2022-10-25T10:16:54.018Z,0.70
2022-10-25T10:19:22.503Z,0.60
2022-10-25T10:21:51.477Z,0.70
2022-10-25T10:24:20.748Z,1.00
2022-10-25T10:26:51.534Z,0.95
2022-10-25T10:29:21.271Z,0.88
2022-10-25T10:31:49.815Z,0.88
2022-10-25T10:34:23.746Z,0.70
2022-10-25T10:37:02.205Z,0.70
2022-10-25T10:39:30.266Z,0.70
2022-10-25T10:42:03.057Z,0.70
2022-10-25T10:44:34.247Z,0.70
2022-10-25T10:47:02.776Z,0.50
2022-10-25T10:49:37.069Z,0.73
2022-10-25T10:52:05.264Z,0.80
2022-10-25T10:54:34.846Z,0.95
2022-10-25T10:57:03.773Z,0.70
2022-10-25T10:59:37.307Z,0.70
2022-10-25T11:02:12.145Z,0.63
2022-10-25T11:04:49.668Z,0.55
2022-10-25T11:07:22.307Z,0.50
2022-10-25T11:09:49.952Z,0.50
2022-10-25T11:12:18.786Z,0.57
2022-10-25T11:14:46.469Z,0.50
2022-10-25T11:17:15.792Z,0.50
2022-10-25T11:19:47.717Z,0.60
2022-10-25T11:22:23.855Z,0.65
2022-10-25T11:24:56.392Z,0.65
2022-10-25T11:27:33.018Z,0.63
2022-10-25T11:30:06.502Z,0.70
2022-10-25T11:32:51.322Z,0.60
2022-10-25T11:35:35.496Z,0.60
2022-10-25T11:38:07.357Z,0.60
2022-10-25T11:40:39.469Z,0.90
2022-10-25T11:43:14.964Z,0.55
2022-10-25T11:45:43.221Z,0.60
2022-10-25T11:48:23.771Z,0.50
2022-10-25T11:50:55.609Z,0.60
2022-10-25T11:53:30.177Z,0.52
2022-10-25T11:56:01.600Z,0.60
2022-10-25T11:58:37.544Z,0.85
2022-10-25T12:01:09.066Z,0.68
2022-10-25T12:03:47.284Z,0.90
2022-10-25T12:06:18.289Z,0.57
2022-10-25T12:08:54.107Z,0.70
2022-10-25T12:11:23.544Z,0.60
2022-10-25T12:13:52.559Z,0.75
2022-10-25T12:16:21.900Z,0.50
2022-10-25T12:18:50.716Z,0.70
2022-10-25T12:21:21.016Z,0.60
2022-10-25T12:23:51.571Z,0.68
2022-10-25T12:26:23.590Z,0.68
2022-10-25T12:28:52.173Z,0.68
2022-10-25T12:31:22.125Z,0.60
2022-10-25T12:33:53.227Z,0.45
2022-10-25T12:36:25.169Z,0.60
2022-10-25T12:38:54.205Z,0.70
2022-10-25T12:41:23.331Z,0.70
2022-10-25T12:43:58.776Z,0.60
2022-10-25T12:46:37.192Z,0.68
2022-10-25T12:49:12.069Z,0.77
2022-10-25T12:51:46.527Z,0.68
2022-10-25T12:54:23.221Z,0.60
2022-10-25T12:56:56.676Z,0.60
2022-10-25T12:59:33.163Z,0.85
2022-10-25T13:02:11.052Z,0.80
2022-10-25T13:04:44.873Z,0.98
2022-10-25T13:07:13.988Z,0.50
2022-10-25T13:09:43.426Z,0.70
2022-10-25T13:12:20.241Z,0.70
2022-10-25T13:14:50.549Z,0.82
2022-10-25T13:17:28.517Z,0.50
2022-10-25T13:20:19.951Z,0.60
2022-10-25T13:22:48.954Z,0.70
2022-10-25T13:25:19.302Z,0.65
2022-10-25T13:28:01.805Z,0.70
2022-10-25T13:30:32.155Z,0.80
2022-10-25T13:33:11.593Z,0.73
2022-10-25T13:35:49.594Z,1.00
2022-10-25T13:38:21.889Z,0.63
2022-10-25T13:41:04.392Z,0.90
2022-10-25T13:43:33.773Z,0.57
2022-10-25T13:46:01.586Z,0.77
2022-10-25T13:48:30.726Z,0.88
2022-10-25T13:50:59.792Z,0.88
2022-10-25T13:53:34.111Z,0.75
2022-10-25T13:56:05.288Z,1.10
2022-10-25T13:58:43.362Z,0.63
2022-10-25T14:01:23.055Z,0.90
2022-10-25T14:04:21.205Z,0.73
2022-10-25T14:06:49.140Z,1.00
2022-10-25T14:09:24.293Z,0.90
2022-10-25T14:11:52.950Z,1.67
2022-10-25T14:14:26.917Z,1.10
2022-10-25T14:16:56.827Z,1.20
2022-10-25T14:19:27.240Z,0.98
2022-10-25T14:21:56.232Z,1.00
2022-10-25T14:24:23.919Z,1.10
2022-10-25T14:26:53.156Z,1.48
2022-10-25T14:29:21.838Z,1.20
2022-10-25T14:31:51.141Z,1.20
2022-10-25T14:34:20.143Z,1.10
2022-10-25T14:36:50.018Z,0.95
2022-10-25T14:39:19.239Z,0.82
2022-10-25T14:41:51.364Z,1.00
2022-10-25T14:44:25.235Z,0.80
2022-10-25T14:46:54.997Z,0.80
2022-10-25T14:49:23.303Z,0.90
2022-10-25T14:51:52.379Z,0.80
2022-10-25T14:54:29.021Z,0.80
2022-10-25T14:56:58.257Z,0.68
2022-10-25T14:59:27.591Z,0.80
2022-10-25T15:01:58.377Z,0.70
2022-10-25T15:04:27.270Z,0.80
2022-10-25T15:06:54.994Z,1.00
2022-10-25T15:09:42.826Z,0.70
2022-10-25T15:12:17.291Z,0.70
2022-10-25T15:14:47.388Z,0.90
2022-10-25T15:17:19.087Z,0.70
2022-10-25T15:22:28.796Z,1.00
2022-10-25T15:24:57.572Z,0.80
2022-10-25T15:27:26.582Z,1.20
2022-10-25T15:29:54.368Z,0.90
2022-10-25T15:32:24.371Z,0.88
2022-10-25T15:34:52.676Z,1.00
2022-10-25T15:37:21.252Z,0.90
2022-10-25T15:39:49.987Z,1.20
2022-10-25T15:42:18.174Z,1.00
2022-10-25T15:44:46.147Z,0.88
2022-10-25T15:47:27.462Z,0.88
2022-10-25T15:49:55.493Z,1.20
2022-10-25T15:52:23.233Z,0.77
2022-10-25T15:54:51.117Z,1.20
2022-10-25T15:57:19.145Z,0.90
2022-10-25T15:59:46.829Z,1.25
2022-10-25T16:02:17.856Z,0.80
2022-10-25T16:04:47.235Z,1.00
2022-10-25T16:07:15.786Z,1.17
2022-10-25T16:09:43.613Z,0.95
2022-10-25T16:12:15.064Z,1.10
2022-10-25T16:14:42.806Z,1.20
2022-10-25T16:17:10.702Z,1.20
2022-10-25T16:19:38.408Z,1.02
2022-10-25T16:22:07.351Z,1.60
2022-10-25T16:24:35.021Z,1.33
2022-10-25T16:27:02.697Z,1.95
2022-10-25T16:29:30.604Z,1.10
2022-10-25T16:31:58.260Z,1.10
2022-10-25T16:34:25.982Z,1.08
2022-10-25T16:36:53.886Z,1.00
2022-10-25T16:39:23.033Z,1.17
2022-10-25T16:41:52.507Z,1.17
2022-10-25T16:44:20.346Z,1.02
2022-10-25T16:46:47.975Z,1.38
2022-10-25T16:49:15.736Z,1.60
2022-10-25T16:51:44.230Z,1.27
2022-10-25T16:54:12.256Z,1.15
2022-10-25T16:56:41.363Z,1.10
2022-10-25T16:59:09.224Z,1.63
2022-10-25T17:01:40.085Z,1.33
2022-10-25T17:04:10.626Z,1.08
2022-10-25T17:06:42.695Z,1.33
2022-10-25T17:09:10.797Z,1.17
2022-10-25T17:11:38.725Z,1.17
2022-10-25T17:14:09.511Z,1.13
2022-10-25T17:16:37.534Z,1.45
2022-10-25T17:19:05.381Z,1.17
2022-10-25T17:21:35.688Z,1.27
2022-10-25T17:24:03.629Z,1.33
2022-10-25T17:26:32.480Z,1.60
2022-10-25T17:29:00.955Z,1.38
2022-10-25T17:31:32.361Z,1.30
2022-10-25T17:34:00.155Z,1.23
2022-10-25T17:36:28.962Z,1.10
2022-10-25T17:38:56.758Z,1.20
2022-10-25T17:41:24.555Z,1.95
2022-10-25T17:43:55.912Z,1.30
2022-10-25T17:46:25.841Z,1.33
2022-10-25T17:48:56.549Z,1.38
2022-10-25T17:51:24.352Z,0.93
2022-10-25T17:53:54.002Z,1.08
2022-10-25T17:56:22.963Z,1.40
2022-10-25T17:58:51.243Z,1.15
2022-10-25T18:01:19.764Z,1.30
2022-10-25T18:03:47.948Z,1.42
2022-10-25T18:06:18.960Z,1.83
2022-10-25T18:08:51.205Z,1.58
2022-10-25T18:11:22.268Z,1.48
2022-10-25T18:13:49.989Z,1.48
2022-10-25T18:16:18.204Z,1.25
2022-10-25T18:18:45.886Z,1.52
2022-10-25T18:21:14.647Z,1.38
2022-10-25T18:23:44.009Z,1.40
2022-10-25T18:26:12.720Z,1.60
2022-10-25T18:28:40.583Z,1.42
2022-10-25T18:31:09.475Z,1.25
2022-10-25T18:33:38.186Z,1.25
2022-10-25T18:36:06.584Z,1.50
2022-10-25T18:38:34.675Z,1.55
2022-10-25T18:41:06.121Z,1.58
2022-10-25T18:43:34.121Z,1.20
2022-10-25T18:46:02.175Z,1.50
2022-10-25T18:48:30.129Z,1.30
2022-10-25T18:50:57.875Z,1.60
2022-10-25T18:53:25.648Z,1.40
2022-10-25T18:55:53.668Z,1.50
2022-10-25T18:58:22.636Z,1.40
2022-10-25T19:00:50.459Z,1.38
2022-10-25T19:03:18.269Z,1.20
2022-10-25T19:05:46.004Z,1.40
2022-10-25T19:08:13.698Z,0.90
2022-10-25T19:10:42.484Z,1.40
2022-10-25T19:13:18.399Z,1.35
2022-10-25T19:15:48.617Z,1.50
2022-10-25T19:18:16.609Z,1.58
2022-10-25T19:20:46.393Z,1.70
2022-10-25T19:23:14.467Z,1.05
2022-10-25T19:25:42.189Z,1.35
2022-10-25T19:28:09.996Z,1.25
2022-10-25T19:30:38.739Z,1.23
2022-10-25T19:33:08.145Z,1.70
2022-10-25T19:35:35.928Z,1.20
2022-10-25T19:38:04.045Z,1.55
2022-10-25T19:40:32.169Z,1.65
2022-10-25T19:42:59.897Z,1.40
2022-10-25T19:45:27.609Z,1.30
2022-10-25T19:47:56.907Z,1.60
2022-10-25T19:50:25.900Z,1.20
2022-10-25T19:52:53.677Z,2.08
2022-10-25T19:55:21.436Z,1.63
2022-10-25T19:57:49.495Z,1.42
2022-10-25T20:00:17.535Z,1.70
2022-10-25T20:02:45.231Z,1.65
2022-10-25T20:05:13.731Z,1.58
2022-10-25T20:07:42.891Z,1.95
2022-10-25T20:10:10.696Z,1.48
2022-10-25T20:12:38.326Z,1.58
2022-10-25T20:15:06.403Z,1.30
2022-10-25T20:17:34.072Z,1.75
2022-10-25T20:20:01.704Z,1.50
2022-10-25T20:22:29.435Z,1.73
2022-10-25T20:24:58.407Z,1.77
2022-10-25T20:27:26.032Z,1.63
2022-10-25T20:29:53.820Z,1.60
2022-10-25T20:32:22.369Z,1.58
2022-10-25T20:34:50.174Z,1.60
2022-10-25T20:37:17.909Z,1.45
2022-10-25T20:39:45.798Z,1.30
2022-10-25T20:42:16.287Z,1.67
2022-10-25T20:44:43.965Z,1.42
2022-10-25T20:47:11.681Z,1.40
2022-10-25T20:49:39.390Z,1.63
2022-10-25T20:52:07.030Z,1.35
2022-10-25T20:54:34.735Z,1.50
2022-10-25T20:57:02.392Z,2.25
2022-10-25T20:59:31.785Z,1.33
2022-10-25T21:01:59.537Z,1.60
2022-10-25T21:04:42.380Z,1.50
2022-10-25T21:07:15.050Z,1.45
2022-10-25T21:09:47.051Z,1.13
2022-10-25T21:12:16.845Z,1.65
2022-10-25T21:14:45.826Z,1.50
2022-10-25T21:17:14.317Z,1.80
2022-10-25T21:19:41.914Z,1.48
2022-10-25T21:22:09.624Z,1.80
2022-10-25T21:24:37.288Z,1.58
2022-10-25T21:27:23.731Z,1.48
2022-10-25T21:29:52.695Z,1.45
2022-10-25T21:32:20.690Z,1.80
2022-10-25T21:34:48.339Z,1.40
2022-10-25T21:37:16.120Z,1.90
2022-10-25T21:39:45.882Z,1.65
2022-10-25T21:42:13.606Z,1.60
2022-10-25T21:44:41.286Z,1.58
2022-10-25T21:47:10.271Z,1.40
2022-10-25T21:49:37.934Z,1.92
2022-10-25T21:52:05.723Z,1.70
2022-10-25T21:54:33.421Z,1.65
2022-10-25T21:57:01.081Z,1.40
2022-10-25T21:59:28.821Z,1.40
2022-10-25T22:01:56.616Z,1.50
2022-10-25T22:04:27.713Z,1.42
2022-10-25T22:06:55.380Z,1.20
2022-10-25T22:09:23.028Z,1.38
2022-10-25T22:11:51.645Z,1.48
2022-10-25T22:14:19.271Z,2.13
2022-10-25T22:16:46.948Z,1.48
2022-10-25T22:19:15.638Z,1.40
2022-10-25T22:21:44.998Z,1.42
2022-10-25T22:24:13.564Z,1.25
2022-10-25T22:26:41.977Z,1.20
2022-10-25T22:29:10.318Z,1.23
2022-10-25T22:31:38.525Z,1.50
2022-10-25T22:34:06.846Z,1.30
2022-10-25T22:36:35.370Z,1.25
2022-10-25T22:39:04.680Z,1.20
2022-10-25T22:41:32.384Z,1.27
2022-10-25T22:44:00.661Z,1.70
2022-10-25T22:46:29.729Z,1.45
2022-10-25T22:48:58.362Z,1.30
2022-10-25T22:51:27.416Z,1.10
2022-10-25T22:53:55.524Z,1.38
2022-10-25T22:56:25.524Z,1.30
2022-10-25T22:58:54.232Z,1.30
2022-10-25T23:01:22.833Z,1.10
2022-10-25T23:03:52.096Z,1.27
2022-10-25T23:06:21.033Z,1.40
2022-10-25T23:08:49.029Z,1.25
2022-10-25T23:11:17.567Z,1.40
2022-10-25T23:13:46.837Z,1.20
2022-10-25T23:16:15.537Z,1.70
2022-10-25T23:18:43.783Z,1.30
2022-10-25T23:21:15.571Z,1.42
2022-10-25T23:23:43.189Z,1.40
2022-10-25T23:26:13.592Z,1.48
2022-10-25T23:28:41.240Z,1.25
2022-10-25T23:31:11.074Z,1.65
2022-10-25T23:33:38.968Z,1.40
2022-10-25T23:36:08.676Z,2.13
2022-10-25T23:38:36.620Z,1.58
2022-10-25T23:41:04.510Z,1.70
2022-10-25T23:43:32.371Z,1.77
2022-10-25T23:46:00.240Z,1.75
2022-10-25T23:48:29.291Z,1.67
2022-10-25T23:50:57.891Z,1.83
2022-10-25T23:53:25.954Z,1.90
2022-10-25T23:55:53.588Z,1.73
2022-10-25T23:58:21.610Z,2.10
